createdAt,value
2022-12-27T00:00:15.296Z,9.10
2022-12-27T00:02:44.051Z,9.10
2022-12-27T00:05:15.651Z,9.10
2022-12-27T00:07:45.635Z,9.10
2022-12-27T00:10:13.977Z,9.10
2022-12-27T00:12:43.660Z,9.00
2022-12-27T00:15:12.224Z,9.00
2022-12-27T00:17:41.044Z,9.00
2022-12-27T00:20:11.826Z,9.30
2022-12-27T00:22:41.351Z,8.90
2022-12-27T00:25:10.998Z,8.90
2022-12-27T00:27:40.031Z,8.80
2022-12-27T00:30:11.653Z,8.80
2022-12-27T00:32:40.973Z,8.80
2022-12-27T00:35:10.485Z,8.80
2022-12-27T00:37:39.163Z,8.70
2022-12-27T00:40:09.253Z,8.80
2022-12-27T00:42:38.538Z,8.70
2022-12-27T00:45:09.992Z,8.60
2022-12-27T00:47:38.443Z,8.60
2022-12-27T00:50:07.871Z,8.60
2022-12-27T00:52:36.348Z,8.70
2022-12-27T00:55:05.530Z,8.70
2022-12-27T00:57:33.941Z,8.60
2022-12-27T01:00:07.935Z,8.60
2022-12-27T01:02:39.891Z,8.60
2022-12-27T01:05:09.133Z,8.60
2022-12-27T01:07:37.503Z,8.60
2022-12-27T01:10:07.236Z,8.60
2022-12-27T01:12:37.272Z,8.60
2022-12-27T01:15:07.177Z,8.50
2022-12-27T01:17:35.709Z,8.50
2022-12-27T01:20:06.602Z,8.80
2022-12-27T01:22:34.937Z,8.40
2022-12-27T01:25:03.226Z,8.40
2022-12-27T01:27:31.578Z,8.40
2022-12-27T01:29:59.963Z,8.40
2022-12-27T01:32:28.329Z,8.60
2022-12-27T01:34:56.621Z,8.30
2022-12-27T01:37:28.554Z,8.30
2022-12-27T01:39:57.135Z,9.20
2022-12-27T01:42:42.962Z,8.20
2022-12-27T01:45:16.605Z,8.20
2022-12-27T01:47:52.299Z,8.20
2022-12-27T01:50:28.687Z,8.20
2022-12-27T01:53:08.329Z,8.10
2022-12-27T01:55:44.164Z,8.10
2022-12-27T01:58:21.357Z,8.40
2022-12-27T02:00:50.578Z,8.20
2022-12-27T02:03:25.026Z,8.00
2022-12-27T02:05:53.876Z,8.00
2022-12-27T02:08:37.743Z,8.00
2022-12-27T02:11:08.657Z,7.90
2022-12-27T02:13:41.733Z,8.00
2022-12-27T02:16:16.544Z,7.90
2022-12-27T02:18:46.962Z,7.90
2022-12-27T02:21:49.943Z,7.90
2022-12-27T02:24:50.068Z,7.90
2022-12-27T02:27:40.877Z,7.90
2022-12-27T02:30:13.450Z,7.80
2022-12-27T02:32:46.799Z,7.80
2022-12-27T02:35:20.216Z,7.80
2022-12-27T02:37:53.975Z,8.00
2022-12-27T02:40:39.104Z,7.80
2022-12-27T02:43:25.365Z,7.80
2022-12-27T02:46:22.156Z,7.70
2022-12-27T02:49:13.159Z,7.70
2022-12-27T02:52:16.953Z,7.70
2022-12-27T02:55:13.441Z,7.70
2022-12-27T02:57:47.916Z,7.90
2022-12-27T03:00:37.356Z,7.80
2022-12-27T03:03:42.608Z,7.80
2022-12-27T03:06:42.319Z,7.60
2022-12-27T03:09:53.825Z,7.50
2022-12-27T03:12:53.726Z,7.50
2022-12-27T03:15:54.991Z,7.40
2022-12-27T03:18:36.458Z,7.40
2022-12-27T03:21:25.513Z,7.30
2022-12-27T03:24:14.939Z,7.30
2022-12-27T03:26:48.434Z,7.30
2022-12-27T03:29:37.144Z,7.30
2022-12-27T03:32:27.863Z,7.20
2022-12-27T03:35:07.244Z,7.20
2022-12-27T03:37:57.739Z,7.20
2022-12-27T03:40:38.923Z,7.40
2022-12-27T03:43:12.560Z,7.10
2022-12-27T03:46:15.698Z,7.30
2022-12-27T03:49:00.921Z,7.00
2022-12-27T03:51:37.314Z,7.00
2022-12-27T03:54:10.355Z,7.10
2022-12-27T03:56:41.834Z,7.00
2022-12-27T03:59:13.767Z,7.00
2022-12-27T04:01:43.406Z,6.90
2022-12-27T04:04:11.922Z,6.90
2022-12-27T04:06:41.602Z,6.90
2022-12-27T04:09:28.931Z,6.90
2022-12-27T04:12:16.025Z,6.90
2022-12-27T04:15:02.080Z,6.80
2022-12-27T04:17:48.155Z,6.80
2022-12-27T04:20:34.201Z,6.80
2022-12-27T04:23:21.333Z,7.00
2022-12-27T04:26:07.357Z,6.70
2022-12-27T04:28:53.517Z,6.90
2022-12-27T04:31:39.988Z,6.70
2022-12-27T04:34:26.198Z,6.60
2022-12-27T04:36:54.543Z,6.60
2022-12-27T04:39:24.588Z,6.60
2022-12-27T04:42:11.190Z,6.60
2022-12-27T04:44:57.149Z,6.60
2022-12-27T04:47:43.514Z,6.60
2022-12-27T04:50:37.611Z,6.50
2022-12-27T04:53:29.599Z,6.50
2022-12-27T04:55:59.802Z,6.50
2022-12-27T04:58:29.120Z,6.50
2022-12-27T05:01:19.849Z,6.40
2022-12-27T05:03:51.161Z,6.40
2022-12-27T05:06:20.289Z,6.40
2022-12-27T05:09:07.195Z,6.30
2022-12-27T05:11:54.687Z,6.30
2022-12-27T05:14:22.948Z,6.30
2022-12-27T05:16:51.320Z,6.30
2022-12-27T05:19:19.586Z,6.20
2022-12-27T05:22:01.826Z,6.30
2022-12-27T05:24:49.088Z,6.20
2022-12-27T05:27:19.646Z,6.20
2022-12-27T05:29:48.401Z,6.20
2022-12-27T05:32:16.717Z,6.20
2022-12-27T05:34:45.027Z,6.20
2022-12-27T05:37:13.384Z,6.20
2022-12-27T05:39:41.677Z,6.20
2022-12-27T05:42:09.990Z,6.10
2022-12-27T05:44:39.675Z,6.40
2022-12-27T05:47:07.989Z,6.10
2022-12-27T05:49:36.242Z,6.10
2022-12-27T05:52:04.893Z,6.00
2022-12-27T05:54:33.185Z,6.00
2022-12-27T05:57:01.499Z,6.00
2022-12-27T05:59:29.843Z,6.00
2022-12-27T06:01:59.652Z,6.00
2022-12-27T06:04:28.038Z,6.00
2022-12-27T06:06:56.366Z,6.00
2022-12-27T06:09:24.881Z,5.90
2022-12-27T06:11:53.385Z,5.90
2022-12-27T06:14:21.995Z,6.00
2022-12-27T06:16:50.316Z,5.90
2022-12-27T06:19:20.048Z,5.90
2022-12-27T06:21:48.382Z,5.90
2022-12-27T06:24:17.273Z,5.90
2022-12-27T06:26:45.627Z,5.90
2022-12-27T06:29:14.362Z,5.90
2022-12-27T06:31:42.641Z,5.90
2022-12-27T06:34:12.500Z,5.90
2022-12-27T06:36:42.220Z,5.90
2022-12-27T06:39:10.522Z,5.90
2022-12-27T06:41:38.855Z,5.90
2022-12-27T06:44:07.235Z,5.90
2022-12-27T06:46:35.559Z,5.90
2022-12-27T06:49:04.266Z,5.90
2022-12-27T06:51:32.616Z,5.90
2022-12-27T06:54:02.416Z,5.90
2022-12-27T06:56:30.693Z,5.90
2022-12-27T06:58:59.036Z,5.90
2022-12-27T07:01:29.083Z,5.90
2022-12-27T07:04:01.004Z,5.90
2022-12-27T07:06:32.055Z,5.90
2022-12-27T07:09:02.139Z,5.90
2022-12-27T07:11:33.032Z,5.90
2022-12-27T07:14:01.491Z,5.90
2022-12-27T07:16:31.347Z,5.90
2022-12-27T07:19:01.202Z,5.90
2022-12-27T07:21:30.523Z,5.90
2022-12-27T07:23:59.212Z,5.90
2022-12-27T07:26:31.308Z,5.90
2022-12-27T07:29:01.926Z,6.00
2022-12-27T07:31:34.039Z,6.00
2022-12-27T07:34:04.736Z,6.00
2022-12-27T07:36:37.094Z,6.00
2022-12-27T07:39:06.373Z,6.00
2022-12-27T07:41:36.709Z,6.00
2022-12-27T07:44:06.233Z,6.00
2022-12-27T07:46:35.428Z,6.00
2022-12-27T07:49:03.713Z,6.00
2022-12-27T07:51:32.071Z,6.10
2022-12-27T07:54:01.242Z,6.10
2022-12-27T07:56:30.912Z,6.10
2022-12-27T07:59:02.760Z,6.10
2022-12-27T08:02:02.729Z,6.10
2022-12-27T08:04:31.585Z,6.10
2022-12-27T08:07:05.694Z,6.40
2022-12-27T08:09:38.975Z,6.10
2022-12-27T08:12:08.303Z,6.20
2022-12-27T08:14:38.443Z,6.20
2022-12-27T08:17:11.677Z,6.20
2022-12-27T08:19:40.092Z,6.20
2022-12-27T08:22:08.385Z,6.20
2022-12-27T08:24:38.329Z,6.30
2022-12-27T08:27:06.655Z,6.30
2022-12-27T08:29:35.039Z,6.30
2022-12-27T08:32:04.884Z,6.40
2022-12-27T08:34:33.291Z,6.40
2022-12-27T08:37:01.739Z,6.40
2022-12-27T08:39:31.046Z,6.40
2022-12-27T08:41:59.438Z,6.40
2022-12-27T08:44:28.171Z,6.50
2022-12-27T08:46:56.504Z,6.50
2022-12-27T08:49:26.246Z,6.50
2022-12-27T08:51:54.601Z,6.50
2022-12-27T08:54:23.961Z,6.50
2022-12-27T08:56:52.351Z,6.60
2022-12-27T08:59:20.756Z,6.60
2022-12-27T09:01:49.242Z,6.60
2022-12-27T09:04:17.760Z,6.70
2022-12-27T09:06:48.007Z,6.80
2022-12-27T09:09:16.474Z,6.70
2022-12-27T09:11:45.072Z,6.70
2022-12-27T09:14:13.480Z,6.80
2022-12-27T09:16:41.738Z,6.80
2022-12-27T09:19:11.612Z,6.80
2022-12-27T09:21:42.266Z,6.80
2022-12-27T09:24:13.563Z,6.80
2022-12-27T09:26:42.587Z,6.90
2022-12-27T09:29:12.379Z,6.90
2022-12-27T09:31:40.631Z,6.90
2022-12-27T09:34:10.569Z,7.00
2022-12-27T09:36:41.024Z,6.90
2022-12-27T09:39:13.716Z,6.90
2022-12-27T09:42:44.986Z,7.00
2022-12-27T09:44:51.008Z,7.00
2022-12-27T09:47:26.190Z,7.00
2022-12-27T09:50:02.263Z,7.00
2022-12-27T09:52:37.322Z,7.10
2022-12-27T09:55:12.684Z,7.10
2022-12-27T09:57:45.288Z,7.10
2022-12-27T10:00:32.410Z,7.10
2022-12-27T10:03:06.278Z,7.10
2022-12-27T10:05:38.026Z,7.10
2022-12-27T10:08:24.908Z,7.20
2022-12-27T10:11:02.511Z,7.20
2022-12-27T10:13:44.369Z,7.20
2022-12-27T10:16:26.385Z,7.20
2022-12-27T10:19:18.625Z,7.20
2022-12-27T10:21:59.918Z,7.20
2022-12-27T10:24:40.276Z,7.40
2022-12-27T10:27:17.478Z,7.20
2022-12-27T10:29:47.592Z,7.20
2022-12-27T10:32:17.739Z,7.30
2022-12-27T10:34:46.497Z,7.30
2022-12-27T10:37:16.894Z,7.40
2022-12-27T10:39:45.321Z,7.40
2022-12-27T10:42:32.258Z,7.40
2022-12-27T10:45:34.709Z,7.40
2022-12-27T10:48:17.489Z,7.40
2022-12-27T10:50:49.996Z,7.50
2022-12-27T10:53:38.199Z,7.60
2022-12-27T10:56:14.428Z,7.50
2022-12-27T10:58:46.709Z,7.60
2022-12-27T11:01:25.590Z,7.60
2022-12-27T11:04:17.922Z,7.60
2022-12-27T11:06:51.510Z,7.70
2022-12-27T11:09:30.234Z,7.70
2022-12-27T11:12:18.973Z,7.70
2022-12-27T11:14:59.819Z,7.70
2022-12-27T11:17:36.316Z,7.80
2022-12-27T11:20:20.700Z,7.80
2022-12-27T11:22:52.816Z,7.90
2022-12-27T11:25:21.760Z,7.80
2022-12-27T11:27:55.296Z,7.90
2022-12-27T11:30:28.559Z,7.90
2022-12-27T11:33:03.714Z,7.90
2022-12-27T11:35:32.745Z,7.90
2022-12-27T11:38:01.386Z,8.00
2022-12-27T11:40:35.919Z,7.90
2022-12-27T11:43:09.603Z,7.90
2022-12-27T11:45:42.803Z,7.90
2022-12-27T11:48:24.441Z,8.10
2022-12-27T11:51:11.618Z,8.00
2022-12-27T11:54:24.459Z,8.00
2022-12-27T11:56:58.817Z,8.00
2022-12-27T11:59:51.093Z,8.00
2022-12-27T12:02:44.470Z,8.00
2022-12-27T12:05:53.117Z,8.00
2022-12-27T12:09:14.109Z,8.00
2022-12-27T12:12:15.799Z,8.00
2022-12-27T12:15:14.167Z,8.10
2022-12-27T12:18:17.808Z,8.10
2022-12-27T12:21:24.507Z,8.10
2022-12-27T12:24:34.032Z,8.20
2022-12-27T12:27:28.516Z,8.20
2022-12-27T12:30:42.882Z,8.40
2022-12-27T12:33:38.422Z,8.20
2022-12-27T12:36:52.769Z,8.20
2022-12-27T12:39:38.033Z,8.20
2022-12-27T12:42:21.786Z,8.20
2022-12-27T12:45:18.259Z,8.20
2022-12-27T12:48:25.668Z,8.20
2022-12-27T12:51:31.880Z,8.20
2022-12-27T12:54:14.144Z,8.10
2022-12-27T12:57:10.119Z,8.10
2022-12-27T13:00:12.700Z,8.10
2022-12-27T13:03:46.007Z,8.10
2022-12-27T13:06:46.458Z,8.00
2022-12-27T13:09:30.195Z,8.00
2022-12-27T13:12:06.147Z,8.00
2022-12-27T13:15:01.722Z,8.00
2022-12-27T13:17:41.256Z,8.00
2022-12-27T13:20:35.967Z,8.00
2022-12-27T13:23:19.745Z,8.10
2022-12-27T13:25:52.828Z,8.20
2022-12-27T13:28:37.939Z,8.00
2022-12-27T13:31:17.743Z,8.00
2022-12-27T13:34:01.514Z,8.00
2022-12-27T13:36:36.352Z,8.10
2022-12-27T13:39:37.144Z,8.10
2022-12-27T13:42:41.922Z,8.10
2022-12-27T13:45:30.841Z,8.20
2022-12-27T13:48:16.442Z,8.10
2022-12-27T13:51:01.007Z,8.10
2022-12-27T13:54:13.136Z,8.10
2022-12-27T13:56:54.790Z,8.10
2022-12-27T14:00:09.147Z,8.10
2022-12-27T14:03:08.092Z,8.10
2022-12-27T14:06:07.794Z,8.10
2022-12-27T14:09:20.208Z,8.10
2022-12-27T14:12:07.813Z,8.10
2022-12-27T14:14:39.426Z,8.10
2022-12-27T14:17:23.357Z,8.10
2022-12-27T14:20:33.071Z,8.10
2022-12-27T14:23:22.562Z,8.10
2022-12-27T14:26:44.811Z,8.00
2022-12-27T14:30:08.109Z,8.00
2022-12-27T14:33:33.397Z,8.00
2022-12-27T14:36:27.411Z,8.00
2022-12-27T14:39:30.113Z,8.00
2022-12-27T14:42:50.153Z,8.00
2022-12-27T14:45:58.134Z,8.00
2022-12-27T14:49:29.034Z,8.00
2022-12-27T14:52:46.387Z,8.00
2022-12-27T14:55:37.709Z,8.00
2022-12-27T14:58:33.619Z,8.00
2022-12-27T15:01:11.880Z,8.00
2022-12-27T15:03:57.103Z,8.00
2022-12-27T15:06:49.547Z,8.00
2022-12-27T15:09:30.478Z,8.00
2022-12-27T15:12:13.612Z,8.00
2022-12-27T15:15:08.594Z,8.00
2022-12-27T15:17:59.175Z,8.00
2022-12-27T15:20:53.651Z,8.00
2022-12-27T15:23:30.432Z,8.20
2022-12-27T15:26:15.960Z,8.00
2022-12-27T15:29:06.221Z,8.30
2022-12-27T15:31:44.296Z,8.00
2022-12-27T15:34:44.962Z,8.00
2022-12-27T15:38:08.385Z,8.00
2022-12-27T15:41:06.220Z,8.00
2022-12-27T15:43:56.298Z,8.00
2022-12-27T15:46:59.596Z,7.90
2022-12-27T15:49:59.254Z,7.90
2022-12-27T15:52:49.083Z,7.90
2022-12-27T15:55:35.506Z,7.90
2022-12-27T15:58:14.933Z,7.90
2022-12-27T16:00:45.306Z,7.90
2022-12-27T16:03:36.041Z,7.90
2022-12-27T16:06:08.826Z,7.90
2022-12-27T16:08:40.215Z,7.90
2022-12-27T16:11:12.794Z,7.80
2022-12-27T16:13:51.719Z,7.80
2022-12-27T16:16:57.988Z,7.80
2022-12-27T16:20:10.317Z,7.80
2022-12-27T16:22:45.131Z,7.80
2022-12-27T16:25:30.635Z,7.80
2022-12-27T16:28:05.328Z,7.80
2022-12-27T16:30:52.230Z,8.10
2022-12-27T16:33:34.937Z,7.80
2022-12-27T16:36:18.316Z,7.80
2022-12-27T16:39:01.559Z,7.80
2022-12-27T16:42:03.943Z,7.80
2022-12-27T16:44:53.233Z,7.80
2022-12-27T16:47:59.890Z,7.80
2022-12-27T16:50:45.779Z,7.80
2022-12-27T16:53:31.009Z,7.80
2022-12-27T16:56:24.855Z,7.80
2022-12-27T16:58:53.233Z,7.80
2022-12-27T17:01:58.737Z,7.80
2022-12-27T17:04:54.577Z,7.80
2022-12-27T17:08:16.575Z,7.80
2022-12-27T17:10:59.311Z,7.80
2022-12-27T17:13:39.313Z,7.80
2022-12-27T17:16:19.829Z,7.90
2022-12-27T17:18:54.427Z,7.90
2022-12-27T17:21:30.659Z,7.90
2022-12-27T17:24:03.177Z,7.90
2022-12-27T17:27:03.241Z,7.90
2022-12-27T17:30:06.227Z,7.90
2022-12-27T17:33:05.612Z,7.90
2022-12-27T17:35:48.269Z,7.90
2022-12-27T17:38:28.891Z,7.90
2022-12-27T17:41:15.185Z,8.10
2022-12-27T17:44:13.183Z,8.10
2022-12-27T17:46:53.427Z,8.10
2022-12-27T17:49:28.486Z,8.20
2022-12-27T17:52:15.693Z,7.90
2022-12-27T17:55:01.884Z,7.90
2022-12-27T17:57:48.351Z,7.90
2022-12-27T18:00:25.227Z,7.90
2022-12-27T18:02:56.830Z,7.90
2022-12-27T18:05:30.120Z,8.10
2022-12-27T18:08:04.302Z,7.90
2022-12-27T18:10:34.470Z,7.80
2022-12-27T18:13:06.451Z,7.90
2022-12-27T18:15:37.318Z,8.10
2022-12-27T18:18:09.357Z,7.90
2022-12-27T18:20:40.960Z,7.90
2022-12-27T18:23:19.181Z,7.90
2022-12-27T18:25:57.827Z,7.90
2022-12-27T18:28:32.901Z,7.90
2022-12-27T18:31:08.412Z,7.90
2022-12-27T18:33:43.072Z,7.90
2022-12-27T18:36:22.113Z,7.90
2022-12-27T18:38:57.591Z,7.90
2022-12-27T18:41:26.487Z,7.90
2022-12-27T18:44:01.683Z,7.80
2022-12-27T18:46:33.564Z,7.80
2022-12-27T18:49:04.245Z,7.80
2022-12-27T18:51:35.171Z,8.00
2022-12-27T18:54:06.723Z,7.80
2022-12-27T18:56:36.170Z,7.90
2022-12-27T18:59:13.963Z,7.80
2022-12-27T19:01:45.711Z,7.80
2022-12-27T19:04:28.364Z,7.80
2022-12-27T19:07:11.494Z,7.80
2022-12-27T19:09:43.187Z,7.70
2022-12-27T19:12:24.249Z,7.70
2022-12-27T19:14:53.293Z,7.70
2022-12-27T19:17:26.002Z,7.70
2022-12-27T19:19:59.226Z,7.70
2022-12-27T19:22:36.456Z,7.70
2022-12-27T19:25:15.832Z,7.70
2022-12-27T19:28:24.120Z,7.70
2022-12-27T19:31:09.639Z,7.70
2022-12-27T19:33:38.186Z,7.70
2022-12-27T19:36:10.317Z,7.70
2022-12-27T19:38:46.017Z,7.70
2022-12-27T19:41:16.545Z,7.60
2022-12-27T19:43:47.336Z,7.60
2022-12-27T19:46:19.146Z,7.60
2022-12-27T19:49:07.559Z,7.90
2022-12-27T19:51:38.475Z,7.60
2022-12-27T19:54:13.966Z,7.60
2022-12-27T19:56:42.442Z,7.60
2022-12-27T19:59:17.145Z,7.60
2022-12-27T20:01:46.175Z,7.60
2022-12-27T20:04:15.275Z,7.50
2022-12-27T20:06:46.654Z,7.70
2022-12-27T20:09:19.633Z,7.50
2022-12-27T20:11:50.698Z,7.50
2022-12-27T20:14:19.117Z,7.70
2022-12-27T20:16:48.127Z,7.50
2022-12-27T20:19:18.211Z,7.40
2022-12-27T20:21:48.109Z,7.60
2022-12-27T20:24:16.412Z,7.40
2022-12-27T20:26:45.262Z,7.40
2022-12-27T20:29:15.225Z,7.70
2022-12-27T20:31:48.529Z,7.30
2022-12-27T20:34:17.093Z,7.30
2022-12-27T20:36:47.191Z,7.30
2022-12-27T20:39:16.506Z,7.50
2022-12-27T20:41:44.868Z,7.20
2022-12-27T20:44:14.768Z,7.10
2022-12-27T20:46:43.130Z,7.10
2022-12-27T20:49:11.501Z,7.10
2022-12-27T20:51:41.578Z,7.10
2022-12-27T20:54:13.929Z,7.10
2022-12-27T20:56:42.429Z,7.00
2022-12-27T20:59:10.706Z,7.20
2022-12-27T21:01:39.166Z,7.00
2022-12-27T21:04:07.549Z,6.90
2022-12-27T21:06:36.071Z,6.90
2022-12-27T21:09:05.458Z,6.80
2022-12-27T21:11:36.155Z,6.80
2022-12-27T21:14:06.024Z,6.80
2022-12-27T21:16:36.247Z,6.70
2022-12-27T21:19:05.317Z,6.70
2022-12-27T21:21:35.702Z,6.60
2022-12-27T21:24:05.093Z,6.60
2022-12-27T21:26:37.721Z,6.60
2022-12-27T21:29:09.177Z,6.50
2022-12-27T21:31:38.236Z,6.50
2022-12-27T21:34:07.156Z,6.50
2022-12-27T21:36:36.844Z,6.40
2022-12-27T21:39:06.290Z,6.50
2022-12-27T21:41:38.805Z,6.40
2022-12-27T21:44:07.853Z,6.40
2022-12-27T21:46:38.965Z,6.30
2022-12-27T21:49:09.752Z,6.60
2022-12-27T21:51:39.275Z,6.30
2022-12-27T21:54:09.189Z,6.60
2022-12-27T21:56:39.336Z,6.30
2022-12-27T21:59:11.179Z,6.20
2022-12-27T22:01:50.670Z,6.20
2022-12-27T22:04:21.382Z,6.20
2022-12-27T22:06:50.116Z,6.20
2022-12-27T22:09:19.283Z,6.10
2022-12-27T22:11:49.459Z,6.10
2022-12-27T22:14:23.394Z,6.10
2022-12-27T22:16:53.778Z,6.00
2022-12-27T22:19:22.192Z,6.00
2022-12-27T22:21:50.489Z,6.00
2022-12-27T22:24:19.892Z,6.00
2022-12-27T22:26:50.286Z,5.90
2022-12-27T22:29:18.982Z,6.00
2022-12-27T22:31:47.293Z,6.40
2022-12-27T22:34:15.813Z,5.90
2022-12-27T22:36:44.163Z,5.90
2022-12-27T22:39:12.515Z,5.80
2022-12-27T22:41:40.976Z,5.80
2022-12-27T22:44:13.756Z,5.80
2022-12-27T22:47:25.170Z,6.00
2022-12-27T22:49:31.649Z,5.80
2022-12-27T22:52:00.087Z,5.80
2022-12-27T22:55:04.761Z,5.80
2022-12-27T22:57:16.774Z,5.80
2022-12-27T22:59:46.476Z,5.80
2022-12-27T23:02:15.032Z,5.90
2022-12-27T23:04:43.524Z,5.80
2022-12-27T23:07:11.946Z,5.80
2022-12-27T23:09:43.468Z,5.70
2022-12-27T23:12:13.379Z,5.80
2022-12-27T23:14:42.502Z,5.70
2022-12-27T23:17:12.603Z,5.80
2022-12-27T23:19:41.411Z,5.80
2022-12-27T23:22:09.853Z,5.80
2022-12-27T23:24:38.455Z,5.70
2022-12-27T23:27:06.817Z,5.70
2022-12-27T23:29:35.136Z,5.80
2022-12-27T23:32:03.805Z,5.70
2022-12-27T23:34:33.753Z,5.80
2022-12-27T23:37:02.214Z,5.80
2022-12-27T23:39:31.223Z,5.80
2022-12-27T23:41:59.587Z,5.80
2022-12-27T23:44:33.789Z,5.80
2022-12-27T23:47:05.393Z,5.80
2022-12-27T23:49:35.597Z,5.80
2022-12-27T23:52:04.391Z,5.80
2022-12-27T23:54:32.870Z,5.80
2022-12-27T23:57:22.388Z,5.80
2022-12-27T23:59:50.067Z,5.90
